Ashuelot River @ Hinsdale, Nh

Ashuelot River at Hinsdale
 Total Drainage Area: 420 sq. miles 
 Drainage Area Controlled by Corps Dams: 147 sq. miles (35%) 
 Warning Flow/Stage: 6,170 cfs / 8.0 feet 
 Flood Flow/Stage: 9,360 cfs / 9.0 feet 
Date Time
(Eastern)
Stage
(ft)
Flow
(cfs)
CSM
(cfs / sq. mi.)
Jun-25 01:45 am 4.69 746 1.8
Jun-25 12:45 am 4.69 746 1.8
Jun-24 11:45 pm 4.68 740 1.8
Jun-24 10:45 pm 4.67 733 1.8
Jun-24 09:45 pm 4.67 733 1.8
Jun-24 08:45 pm 4.67 733 1.8
Jun-24 07:45 pm 4.66 726 1.7
Jun-24 06:45 pm 4.65 720 1.7
Jun-24 05:45 pm 4.64 713 1.7
Jun-24 04:45 pm 4.62 700 1.7
Jun-24 03:45 pm 4.60 688 1.6
Jun-24 02:45 pm 4.59 681 1.6
Jun-24 01:45 pm 4.72 765 1.8
Jun-24 12:45 pm 4.56 662 1.6
Jun-24 11:45 am 4.44 585 1.4
Jun-24 10:45 am 4.58 675 1.6
Jun-24 09:45 am 4.57 668 1.6
Jun-24 08:45 am 4.57 668 1.6
Jun-24 07:45 am 4.56 662 1.6
Jun-24 06:45 am 4.54 649 1.5
Jun-24 05:45 am 4.54 649 1.5
Jun-24 04:45 am 4.51 629 1.5
Jun-24 03:45 am 4.49 616 1.5
Jun-24 02:45 am 4.47 604 1.4
Jun-24 01:45 am 4.45 591 1.4
Report Generated June 25, 2024 02:26 am